Airfield :
LOGIN :

Register | Disclaimer

   EN    FR    IT 

 










Legend :    VFR   Marginal VFR   IFR   Intensive IFR   Very Intensive IFR
Visi :
Ceiling :
>= 8 km
>= 3000ft
5 to 8 km
1000 to 3000 ft
1500m to 5 km
500 to 1000 ft
800 to 1500m
200 to 500 ft
< 800m
< 200 ft
Symbols :   Thunderstorms  Fog  Heavy snow  Heavy precipitations  Wind > 20 kt
SIGMETs :     Misc.  Thunderstorms  Icing  Turbulence  Mountain Waves  Volcanic Ashes






- Airport Elevation : 47 ft
- IATA code : BMA


ESSB - Stockholm-Bromma

CURRENT METAR :
  • 201820Z 16014G26KT 9999 -RA BKN014 04/02 Q1003 R12/09//95

EXPIRED METARs :
  • 201750Z 17013KT 140V210 9999 BKN017 05/02 Q1003 R12/09//95
  • 201720Z 16013KT 140V200 9999 BKN017 05/02 Q1004 R12/09//95
  • 201650Z 16013KT 9999 BKN017 05/01 Q1005 R12/09//95
  • 201620Z 17012KT 9999 BKN018 04/01 Q1006 R12/09//95
  • 201550Z 18014KT 9999 BKN017 04/01 Q1006 R12/09//95

TAF TAF ESSB
Valid from the 20 at 18:00 until the 20 at 21:00 UTC


201730Z 2018/2021 18014G24KT 9999 -RA BKN018
BECMG 2018/2020 BKN008
TEMPO 2020/2021 4000 -RADZ BKN012



MET'MAP, your aeronautical weather chart ! - Copyright ORBIFLY December 2007 - Disclaimer

ORBIFLY MET'MAP TEAM :

Programming & Development : Alexandra Zaïnal
Concept & original design : Baudouin d'Aumeries
Assistance for programming : Marc-Olivier Méhu
Technical & hardware support : Manuel Goepfert

Contact : metmap@orbifly.com




SOURCES & CREDITS :

   NOAA